Time;durP1;ratioP1;P1;durP2;ratioP2;P2;SDS_P1;SDS_P2;PMS_P1;PMS_P2;Temp;Humidity;BMP_temperature;BMP_pressure;BME280_temperature;BME280_humidity;BME280_pressure;Samples;Min_cycle;Max_cycle;Signal;HPM_P1;HPM_P2
2023/08/07 00:01:03;;;;;;;0.00;0.00;;;12.10;99.90;;;;;;5093776;28;20222;-62
2023/08/07 00:03:29;;;;;;;0.00;0.00;;;12.00;99.90;;;;;;5094006;28;20186;-61
2023/08/07 00:05:55;;;;;;;0.05;0.05;;;12.10;99.90;;;;;;5093860;28;20281;-62
2023/08/07 00:08:20;;;;;;;0.43;0.13;;;12.10;99.90;;;;;;5093712;28;20177;-62
2023/08/07 00:10:48;;;;;;;0.00;0.00;;;12.10;99.90;;;;;;5093419;28;20646;-61
2023/08/07 00:13:13;;;;;;;0.00;0.00;;;12.10;99.90;;;;;;5093202;28;20211;-62
2023/08/07 00:15:39;;;;;;;0.00;0.00;;;12.10;99.90;;;;;;5093555;28;20254;-62
2023/08/07 00:18:05;;;;;;;0.00;0.00;;;12.10;99.90;;;;;;5093779;28;20712;-61
2023/08/07 00:20:30;;;;;;;0.00;0.00;;;12.10;99.90;;;;;;5093673;28;20210;-62
2023/08/07 00:22:56;;;;;;;0.00;0.00;;;12.10;99.90;;;;;;5093783;28;20169;-61
2023/08/07 00:25:21;;;;;;;0.00;0.00;;;12.10;99.90;;;;;;5093425;28;20667;-61
2023/08/07 00:27:47;;;;;;;0.00;0.00;;;12.10;99.90;;;;;;5092845;28;20208;-62
2023/08/07 00:30:12;;;;;;;0.00;0.00;;;12.10;99.90;;;;;;5092883;28;20635;-61
2023/08/07 00:32:38;;;;;;;0.00;0.00;;;12.10;99.90;;;;;;5090400;28;20253;-61
2023/08/07 00:35:05;;;;;;;0.00;0.00;;;12.10;99.90;;;;;;5092876;28;20208;-61
2023/08/07 00:37:31;;;;;;;0.00;0.00;;;12.10;99.90;;;;;;5093178;28;20172;-61
2023/08/07 00:39:56;;;;;;;0.00;0.00;;;12.10;99.90;;;;;;5092955;28;20717;-62
2023/08/07 00:42:22;;;;;;;0.00;0.00;;;12.10;99.90;;;;;;5092717;28;20176;-61
2023/08/07 00:44:47;;;;;;;0.00;0.00;;;12.10;99.90;;;;;;5091583;28;20176;-62
2023/08/07 00:47:13;;;;;;;0.00;0.00;;;12.00;99.90;;;;;;5093058;28;20168;-62
2023/08/07 00:49:39;;;;;;;0.00;0.00;;;12.00;99.90;;;;;;5092949;28;20187;-61
2023/08/07 00:52:05;;;;;;;0.00;0.00;;;12.00;99.90;;;;;;5092639;28;20180;-62
2023/08/07 00:54:31;;;;;;;0.00;0.00;;;12.00;99.90;;;;;;5090770;28;20261;-62
2023/08/07 00:57:07;;;;;;;0.00;0.00;;;12.00;99.90;;;;;;5088675;28;20241;-62
2023/08/07 00:59:33;;;;;;;0.00;0.00;;;12.00;99.90;;;;;;5092705;28;20197;-62
2023/08/07 01:01:59;;;;;;;0.00;0.00;;;12.00;99.90;;;;;;5092261;28;20179;-62
2023/08/07 01:04:25;;;;;;;0.40;0.40;;;12.00;99.90;;;;;;5092325;28;20188;-62
2023/08/07 01:06:51;;;;;;;0.00;0.00;;;12.00;99.90;;;;;;5092461;28;20184;-62
2023/08/07 01:09:16;;;;;;;0.00;0.00;;;11.90;99.90;;;;;;5092485;28;20647;-62
2023/08/07 01:11:45;;;;;;;0.00;0.00;;;11.90;99.90;;;;;;5092243;28;20176;-62
2023/08/07 01:14:33;;;;;;;0.00;0.00;;;11.90;99.90;;;;;;5072122;28;20253;-62
2023/08/07 01:17:10;;;;;;;0.00;0.00;;;11.90;99.90;;;;;;5082249;28;20183;-62
2023/08/07 01:19:36;;;;;;;0.00;0.00;;;11.90;99.90;;;;;;5092566;28;20581;-62
2023/08/07 01:22:09;;;;;;;0.00;0.00;;;11.80;99.90;;;;;;5092277;28;20180;-62
2023/08/07 01:24:36;;;;;;;0.00;0.00;;;11.80;99.90;;;;;;5092295;28;20215;-62
2023/08/07 01:27:19;;;;;;;0.00;0.00;;;11.80;99.90;;;;;;5092427;28;20251;-62
2023/08/07 01:29:59;;;;;;;0.00;0.00;;;11.80;99.90;;;;;;5092149;28;20683;-62
2023/08/07 01:32:33;;;;;;;0.00;0.00;;;11.80;99.90;;;;;;5092306;28;20233;-62
2023/08/07 01:35:01;;;;;;;0.00;0.00;;;11.80;99.90;;;;;;5092234;28;20214;-62
2023/08/07 01:37:30;;;;;;;0.00;0.00;;;11.80;99.90;;;;;;5092351;28;20225;-62
2023/08/07 01:40:00;;;;;;;0.00;0.00;;;11.80;99.90;;;;;;5092254;28;20168;-62
2023/08/07 01:42:26;;;;;;;0.00;0.00;;;11.80;99.90;;;;;;5091739;28;20184;-62
2023/08/07 01:44:51;;;;;;;0.00;0.00;;;11.80;99.90;;;;;;5092190;28;20587;-62
2023/08/07 01:47:17;;;;;;;0.00;0.00;;;11.80;99.90;;;;;;5092013;28;20835;-62
2023/08/07 01:49:42;;;;;;;0.17;0.17;;;11.80;99.90;;;;;;5091724;28;20263;-62
2023/08/07 01:52:08;;;;;;;0.00;0.00;;;11.80;99.90;;;;;;5091482;28;20229;-62
2023/08/07 01:54:34;;;;;;;0.00;0.00;;;11.80;99.90;;;;;;5091794;28;20220;-62
2023/08/07 01:56:59;;;;;;;0.00;0.00;;;11.80;99.90;;;;;;5086523;28;20192;-62
2023/08/07 01:59:25;;;;;;;0.00;0.00;;;11.80;99.90;;;;;;5091510;28;20187;-62
2023/08/07 02:01:50;;;;;;;0.00;0.00;;;11.80;99.90;;;;;;5091642;28;20542;-62
2023/08/07 02:04:16;;;;;;;0.00;0.00;;;11.80;99.90;;;;;;5091590;28;20722;-62
2023/08/07 02:06:42;;;;;;;0.00;0.00;;;11.80;99.90;;;;;;5091851;28;20195;-62
2023/08/07 02:09:07;;;;;;;0.00;0.00;;;11.80;99.90;;;;;;5089911;28;20635;-62
2023/08/07 02:11:33;;;;;;;0.00;0.00;;;11.80;99.90;;;;;;5091275;28;20183;-62
2023/08/07 02:13:58;;;;;;;0.00;0.00;;;11.80;99.90;;;;;;5090878;28;20192;-62
2023/08/07 02:16:24;;;;;;;0.00;0.00;;;11.80;99.90;;;;;;5091138;28;20708;-62
2023/08/07 02:18:49;;;;;;;0.00;0.00;;;11.80;99.90;;;;;;5091243;28;20187;-61
2023/08/07 02:21:15;;;;;;;0.00;0.00;;;11.70;99.90;;;;;;5091400;28;20211;-62
2023/08/07 02:23:41;;;;;;;0.00;0.00;;;11.70;99.90;;;;;;5090895;28;20263;-62
2023/08/07 02:26:06;;;;;;;0.05;0.05;;;11.70;99.90;;;;;;5091447;28;20180;-62
2023/08/07 02:28:32;;;;;;;0.00;0.00;;;11.70;99.90;;;;;;5090765;28;20709;-62
2023/08/07 02:30:57;;;;;;;0.00;0.00;;;11.70;99.90;;;;;;5090702;28;20202;-62
2023/08/07 02:33:23;;;;;;;0.30;0.20;;;11.70;99.90;;;;;;5089905;28;20172;-62
2023/08/07 02:35:50;;;;;;;0.00;0.00;;;11.70;99.90;;;;;;5091181;28;20281;-62
2023/08/07 02:38:16;;;;;;;0.00;0.00;;;11.70;99.90;;;;;;5091044;28;20183;-61
2023/08/07 02:40:42;;;;;;;0.00;0.00;;;11.70;99.90;;;;;;5091540;28;20188;-62
2023/08/07 02:43:08;;;;;;;0.00;0.00;;;11.70;99.90;;;;;;5090963;28;20255;-62
2023/08/07 02:45:35;;;;;;;0.00;0.00;;;11.70;99.90;;;;;;5091051;28;20263;-61
2023/08/07 02:48:00;;;;;;;0.00;0.00;;;11.70;99.90;;;;;;5090628;28;20960;-61
2023/08/07 02:50:27;;;;;;;0.00;0.00;;;11.70;99.90;;;;;;5091092;28;20200;-61
2023/08/07 02:52:53;;;;;;;0.00;0.00;;;11.70;99.90;;;;;;5091061;28;20176;-62
2023/08/07 02:55:18;;;;;;;0.00;0.00;;;11.70;99.90;;;;;;5090204;28;20230;-62
2023/08/07 02:57:44;;;;;;;0.00;0.00;;;11.70;99.90;;;;;;5081994;28;20186;-62
2023/08/07 03:00:11;;;;;;;0.00;0.00;;;11.70;99.90;;;;;;5091007;28;20193;-62
2023/08/07 03:02:36;;;;;;;0.00;0.00;;;11.70;99.90;;;;;;5090763;28;20915;-62
2023/08/07 03:05:02;;;;;;;0.00;0.00;;;11.70;99.90;;;;;;5090507;28;20183;-62
2023/08/07 03:07:28;;;;;;;0.00;0.00;;;11.70;99.90;;;;;;5090846;28;20183;-61
2023/08/07 03:09:53;;;;;;;0.10;0.10;;;11.70;99.90;;;;;;5090988;28;20196;-62
2023/08/07 03:12:19;;;;;;;0.00;0.00;;;11.70;99.90;;;;;;5090800;28;20176;-61
2023/08/07 03:14:44;;;;;;;0.00;0.00;;;11.70;99.90;;;;;;5089304;28;20200;-62
2023/08/07 03:17:10;;;;;;;0.00;0.00;;;11.70;99.90;;;;;;5089858;28;20172;-61
2023/08/07 03:19:35;;;;;;;0.00;0.00;;;11.70;99.90;;;;;;5091310;28;20292;-62
2023/08/07 03:22:01;;;;;;;0.00;0.00;;;11.70;99.90;;;;;;5091783;28;20221;-62
2023/08/07 03:24:27;;;;;;;0.35;0.35;;;11.70;99.90;;;;;;5091011;28;20207;-61
2023/08/07 03:26:52;;;;;;;0.00;0.00;;;11.70;99.90;;;;;;5093873;28;20249;-62
2023/08/07 03:29:18;;;;;;;0.00;0.00;;;11.70;99.90;;;;;;5094023;28;20288;-61
2023/08/07 03:31:43;;;;;;;0.00;0.00;;;11.70;99.90;;;;;;5094369;28;20704;-60
2023/08/07 03:34:09;;;;;;;0.00;0.00;;;11.60;99.90;;;;;;5094516;28;20207;-61
2023/08/07 03:36:34;;;;;;;0.00;0.00;;;11.70;99.90;;;;;;5094760;28;20192;-61
2023/08/07 03:39:00;;;;;;;0.00;0.00;;;11.70;99.90;;;;;;5094285;28;20651;-61
2023/08/07 03:41:26;;;;;;;0.10;0.10;;;11.70;99.90;;;;;;5094312;28;20241;-62
2023/08/07 03:43:52;;;;;;;0.00;0.00;;;11.70;99.90;;;;;;5094292;28;20665;-61
2023/08/07 03:46:17;;;;;;;0.00;0.00;;;11.60;99.90;;;;;;5094294;28;20192;-63
2023/08/07 03:48:43;;;;;;;0.00;0.00;;;11.70;99.90;;;;;;5094416;28;20183;-64
2023/08/07 03:51:08;;;;;;;0.00;0.00;;;11.70;99.90;;;;;;5094309;28;20211;-60
2023/08/07 03:53:34;;;;;;;0.00;0.00;;;11.70;99.90;;;;;;5094271;28;20207;-61
2023/08/07 03:55:59;;;;;;;0.00;0.00;;;11.60;99.90;;;;;;5093612;28;20184;-60
2023/08/07 03:58:25;;;;;;;0.00;0.00;;;11.60;99.90;;;;;;5094321;28;20228;-60
2023/08/07 04:00:51;;;;;;;0.00;0.00;;;11.70;99.90;;;;;;5094019;28;20191;-60
2023/08/07 04:03:18;;;;;;;0.52;0.52;;;11.60;99.90;;;;;;5093702;28;20180;-60
2023/08/07 04:05:44;;;;;;;0.10;0.10;;;11.60;99.90;;;;;;5093618;28;20229;-59
2023/08/07 04:08:09;;;;;;;0.00;0.00;;;11.60;99.90;;;;;;5093763;28;20180;-59
2023/08/07 04:10:35;;;;;;;0.00;0.00;;;11.60;99.90;;;;;;5094028;28;20187;-63
2023/08/07 04:13:00;;;;;;;0.00;0.00;;;11.60;99.90;;;;;;5093617;28;20535;-62
2023/08/07 04:15:26;;;;;;;0.00;0.00;;;11.60;99.90;;;;;;5093847;28;20233;-61
2023/08/07 04:17:51;;;;;;;0.00;0.00;;;11.60;99.90;;;;;;5092451;28;20533;-66
2023/08/07 04:20:17;;;;;;;0.00;0.00;;;11.60;99.90;;;;;;5093446;28;20647;-64
2023/08/07 04:22:44;;;;;;;0.00;0.00;;;11.60;99.90;;;;;;5093627;28;20643;-62
2023/08/07 04:25:10;;;;;;;0.00;0.00;;;11.60;99.90;;;;;;5093314;28;20184;-61
2023/08/07 04:27:36;;;;;;;0.00;0.00;;;11.60;99.90;;;;;;5093308;28;20186;-63
2023/08/07 04:30:01;;;;;;;0.00;0.00;;;11.60;99.90;;;;;;5092815;28;20546;-63
2023/08/07 04:32:27;;;;;;;0.00;0.00;;;11.60;99.90;;;;;;5093112;28;20180;-61
2023/08/07 04:34:52;;;;;;;0.00;0.00;;;11.60;99.90;;;;;;5093445;28;20216;-61
2023/08/07 04:37:18;;;;;;;0.30;0.30;;;11.60;99.90;;;;;;5092749;28;20187;-61
2023/08/07 04:39:43;;;;;;;0.00;0.00;;;11.60;99.90;;;;;;5093525;28;20220;-61
2023/08/07 04:42:09;;;;;;;0.00;0.00;;;11.60;99.90;;;;;;5091967;28;20267;-61
2023/08/07 04:44:34;;;;;;;0.00;0.00;;;11.70;99.90;;;;;;5092775;28;20176;-61
2023/08/07 04:47:00;;;;;;;0.00;0.00;;;11.70;99.90;;;;;;5092738;28;20187;-61
2023/08/07 04:49:25;;;;;;;0.00;0.00;;;11.70;99.90;;;;;;5092294;28;20172;-61
2023/08/07 04:51:51;;;;;;;0.00;0.00;;;11.70;99.90;;;;;;5093047;28;20177;-61
2023/08/07 04:54:17;;;;;;;0.00;0.00;;;11.70;99.90;;;;;;5092967;28;20256;-61
2023/08/07 04:56:44;;;;;;;0.00;0.00;;;11.70;99.90;;;;;;5092875;28;20596;-61
2023/08/07 04:59:10;;;;;;;0.00;0.00;;;11.70;99.90;;;;;;5092569;28;20663;-61
2023/08/07 05:01:36;;;;;;;0.00;0.00;;;11.70;99.90;;;;;;5092627;28;20184;-61
2023/08/07 05:04:02;;;;;;;0.00;0.00;;;11.70;99.90;;;;;;5092730;28;20267;-61
2023/08/07 05:06:27;;;;;;;0.00;0.00;;;11.70;99.90;;;;;;5092552;28;20284;-61
2023/08/07 05:08:53;;;;;;;0.00;0.00;;;11.70;99.90;;;;;;5092819;28;20639;-61
2023/08/07 05:11:20;;;;;;;0.00;0.00;;;11.70;99.90;;;;;;5092499;28;20325;-62
2023/08/07 05:13:45;;;;;;;0.00;0.00;;;11.80;99.90;;;;;;5092342;28;20528;-61
2023/08/07 05:16:11;;;;;;;0.08;0.08;;;12.00;99.90;;;;;;5092226;28;20188;-59
2023/08/07 05:18:36;;;;;;;0.00;0.00;;;12.50;99.90;;;;;;5092106;28;20240;-60
2023/08/07 05:21:02;;;;;;;0.00;0.00;;;12.70;99.90;;;;;;5091586;28;20587;-63
2023/08/07 05:23:28;;;;;;;0.00;0.00;;;13.10;99.90;;;;;;5091957;28;20176;-59
2023/08/07 05:25:53;;;;;;;0.00;0.00;;;13.40;99.90;;;;;;5092492;28;20654;-62
2023/08/07 05:28:19;;;;;;;0.00;0.00;;;13.60;99.90;;;;;;5091783;28;20710;-59
2023/08/07 05:30:44;;;;;;;0.00;0.00;;;13.40;99.90;;;;;;5091918;28;20597;-59
2023/08/07 05:33:10;;;;;;;0.00;0.00;;;13.40;99.90;;;;;;5091927;28;20211;-59
2023/08/07 05:35:38;;;;;;;0.00;0.00;;;13.20;99.90;;;;;;5092198;28;20265;-59
2023/08/07 05:38:03;;;;;;;0.00;0.00;;;13.00;99.90;;;;;;5092237;28;20172;-59
2023/08/07 05:40:29;;;;;;;0.00;0.00;;;12.90;99.90;;;;;;5092145;28;20183;-59
2023/08/07 05:42:55;;;;;;;0.00;0.00;;;12.70;99.90;;;;;;5092270;28;20537;-59
2023/08/07 05:45:20;;;;;;;0.00;0.00;;;12.60;99.90;;;;;;5091939;28;20176;-59
2023/08/07 05:47:46;;;;;;;0.00;0.00;;;12.60;99.90;;;;;;5091280;28;20184;-59
2023/08/07 05:50:11;;;;;;;0.00;0.00;;;12.60;99.90;;;;;;5091730;28;20195;-58
2023/08/07 05:52:37;;;;;;;0.00;0.00;;;12.50;99.90;;;;;;5091907;28;20172;-59
2023/08/07 05:55:04;;;;;;;0.00;0.00;;;12.50;99.90;;;;;;5089957;28;20265;-58
2023/08/07 05:57:29;;;;;;;0.00;0.00;;;12.60;99.90;;;;;;5091217;28;20164;-58
2023/08/07 05:59:55;;;;;;;0.00;0.00;;;12.60;99.90;;;;;;5090439;28;20592;-58
2023/08/07 06:02:20;;;;;;;0.00;0.00;;;12.70;99.90;;;;;;5090038;28;20230;-58
2023/08/07 06:04:46;;;;;;;0.00;0.00;;;12.70;99.90;;;;;;5091115;28;20712;-58
2023/08/07 06:07:12;;;;;;;0.00;0.00;;;12.80;99.90;;;;;;5090882;28;20184;-58
2023/08/07 06:09:37;;;;;;;0.00;0.00;;;12.80;99.90;;;;;;5091213;28;20230;-58
2023/08/07 06:12:03;;;;;;;0.00;0.00;;;12.80;99.90;;;;;;5091268;28;20184;-58
2023/08/07 06:14:30;;;;;;;0.00;0.00;;;12.90;99.90;;;;;;5090363;28;20219;-58
2023/08/07 06:16:57;;;;;;;0.00;0.00;;;12.90;99.90;;;;;;5091500;28;20272;-59
2023/08/07 06:19:23;;;;;;;0.00;0.00;;;13.00;99.90;;;;;;5091228;28;20188;-59
2023/08/07 06:21:49;;;;;;;0.00;0.00;;;13.20;99.90;;;;;;5091682;28;20175;-58
2023/08/07 06:24:14;;;;;;;0.00;0.00;;;13.40;99.90;;;;;;5091591;28;20184;-58
2023/08/07 06:26:40;;;;;;;0.00;0.00;;;13.80;99.90;;;;;;5091602;28;20249;-58
2023/08/07 06:29:05;;;;;;;0.00;0.00;;;14.10;99.90;;;;;;5091450;28;20562;-58
2023/08/07 06:31:31;;;;;;;0.00;0.00;;;14.10;99.90;;;;;;5091939;28;20172;-58
2023/08/07 06:33:56;;;;;;;0.00;0.00;;;14.00;99.90;;;;;;5091512;28;20263;-58
2023/08/07 06:36:22;;;;;;;0.00;0.00;;;13.90;99.90;;;;;;5091202;28;20205;-58
2023/08/07 06:38:47;;;;;;;0.00;0.00;;;13.70;99.90;;;;;;5091505;28;20176;-58
2023/08/07 06:41:13;;;;;;;0.00;0.00;;;13.50;99.90;;;;;;5091352;28;20176;-58
2023/08/07 06:43:38;;;;;;;0.00;0.00;;;13.40;99.90;;;;;;5091368;28;20188;-58
2023/08/07 06:46:04;;;;;;;0.00;0.00;;;13.30;99.90;;;;;;5091371;28;20187;-58
2023/08/07 06:48:30;;;;;;;0.00;0.00;;;13.20;99.90;;;;;;5091475;28;20183;-58
2023/08/07 06:50:55;;;;;;;0.00;0.00;;;13.20;99.90;;;;;;5091497;28;20643;-58
2023/08/07 06:53:21;;;;;;;0.00;0.00;;;13.20;99.90;;;;;;5091066;28;20187;-58
2023/08/07 06:55:46;;;;;;;0.00;0.00;;;13.10;99.90;;;;;;5091455;28;20208;-58
2023/08/07 06:58:12;;;;;;;0.30;0.25;;;13.20;99.90;;;;;;5091414;28;20179;-58
2023/08/07 07:00:37;;;;;;;0.00;0.00;;;13.20;99.90;;;;;;5094453;28;20176;-58
2023/08/07 07:03:04;;;;;;;0.10;0.10;;;13.20;99.90;;;;;;5095566;28;20199;-58
2023/08/07 07:05:30;;;;;;;0.00;0.00;;;13.20;99.90;;;;;;5095721;28;20255;-58
2023/08/07 07:07:56;;;;;;;0.08;0.08;;;13.30;99.90;;;;;;5095359;28;20255;-58
2023/08/07 07:10:22;;;;;;;0.00;0.00;;;13.20;99.90;;;;;;5095166;28;20207;-58
2023/08/07 07:12:48;;;;;;;0.00;0.00;;;13.30;99.90;;;;;;5095298;28;20203;-58
2023/08/07 07:15:13;;;;;;;0.00;0.00;;;13.20;99.90;;;;;;5095224;28;20640;-58
2023/08/07 07:17:39;;;;;;;0.00;0.00;;;13.20;99.90;;;;;;5095129;28;20180;-60
2023/08/07 07:20:05;;;;;;;0.00;0.00;;;13.20;99.90;;;;;;5095145;28;20180;-58
2023/08/07 07:22:30;;;;;;;0.00;0.00;;;13.20;99.90;;;;;;5095170;28;20538;-58
2023/08/07 07:24:56;;;;;;;0.00;0.00;;;13.20;99.90;;;;;;5095127;28;20176;-58
2023/08/07 07:27:25;;;;;;;0.00;0.00;;;13.20;99.90;;;;;;5094818;28;20184;-58
2023/08/07 07:29:51;;;;;;;0.00;0.00;;;13.30;99.90;;;;;;5094781;28;20710;-58
2023/08/07 07:32:17;;;;;;;0.00;0.00;;;13.30;99.90;;;;;;5094859;28;20342;-58
2023/08/07 07:34:43;;;;;;;0.00;0.00;;;13.40;99.90;;;;;;5094792;28;20303;-58
2023/08/07 07:37:10;;;;;;;0.05;0.05;;;13.50;99.90;;;;;;5094732;28;20200;-58
2023/08/07 07:39:35;;;;;;;0.08;0.08;;;13.50;99.90;;;;;;5094910;28;20703;-58
2023/08/07 07:42:01;;;;;;;0.00;0.00;;;13.60;99.90;;;;;;5094643;28;20190;-58
2023/08/07 07:44:27;;;;;;;0.00;0.00;;;13.60;99.90;;;;;;5094790;28;20183;-58
2023/08/07 07:46:52;;;;;;;0.00;0.00;;;13.60;99.90;;;;;;5094701;28;20172;-58
2023/08/07 07:49:18;;;;;;;0.00;0.00;;;13.70;99.90;;;;;;5094486;28;20176;-58
2023/08/07 07:51:44;;;;;;;0.00;0.00;;;13.70;99.90;;;;;;5094528;28;20213;-58
2023/08/07 07:54:10;;;;;;;0.00;0.00;;;13.70;99.90;;;;;;5094372;28;20227;-58
2023/08/07 07:56:36;;;;;;;0.00;0.00;;;13.80;99.90;;;;;;5094576;28;20215;-58
2023/08/07 07:59:01;;;;;;;0.00;0.00;;;13.80;99.90;;;;;;5094321;28;20692;-58
2023/08/07 08:01:27;;;;;;;0.00;0.00;;;13.90;99.90;;;;;;5094562;28;20215;-58
2023/08/07 08:03:53;;;;;;;0.40;0.40;;;14.00;99.90;;;;;;5094328;28;20180;-58
2023/08/07 08:06:18;;;;;;;0.00;0.00;;;14.00;99.90;;;;;;5094344;28;20230;-58
2023/08/07 08:08:44;;;;;;;0.00;0.00;;;14.10;99.90;;;;;;5094312;28;20172;-59
2023/08/07 08:11:09;;;;;;;0.00;0.00;;;14.10;99.90;;;;;;5093484;28;20267;-58
2023/08/07 08:13:38;;;;;;;0.00;0.00;;;14.10;99.90;;;;;;5094263;28;20172;-58
2023/08/07 08:16:04;;;;;;;0.00;0.00;;;14.10;99.90;;;;;;5094003;28;20219;-58
2023/08/07 08:18:30;;;;;;;0.00;0.00;;;14.20;99.90;;;;;;5094025;28;20729;-58
2023/08/07 08:20:55;;;;;;;0.00;0.00;;;14.10;99.90;;;;;;5093984;28;20176;-58
2023/08/07 08:23:21;;;;;;;0.00;0.00;;;14.00;99.90;;;;;;5093755;28;20190;-58
2023/08/07 08:25:48;;;;;;;0.00;0.00;;;14.00;99.90;;;;;;5094038;28;20269;-58
2023/08/07 08:28:13;;;;;;;0.00;0.00;;;14.00;99.90;;;;;;5093719;28;20220;-58
2023/08/07 08:30:39;;;;;;;0.00;0.00;;;14.00;99.90;;;;;;5093817;28;20666;-58
2023/08/07 08:33:05;;;;;;;0.00;0.00;;;14.00;99.90;;;;;;5093735;28;20259;-58
2023/08/07 08:35:31;;;;;;;0.00;0.00;;;14.10;99.90;;;;;;5093762;28;20294;-58
2023/08/07 08:37:57;;;;;;;0.00;0.00;;;14.20;99.90;;;;;;5093706;28;20172;-58
2023/08/07 08:40:24;;;;;;;0.00;0.00;;;14.30;99.90;;;;;;5093429;28;20283;-58
2023/08/07 08:42:50;;;;;;;0.00;0.00;;;14.50;99.90;;;;;;5093647;28;20180;-60
2023/08/07 08:45:16;;;;;;;0.00;0.00;;;14.80;99.90;;;;;;5093438;28;20635;-58
2023/08/07 08:47:46;;;;;;;0.00;0.00;;;15.10;99.90;;;;;;5093396;28;20225;-58
2023/08/07 08:50:14;;;;;;;0.00;0.00;;;15.50;99.90;;;;;;5093465;28;20216;-58
2023/08/07 08:52:44;;;;;;;0.00;0.00;;;15.90;99.90;;;;;;5093323;28;20255;-59
2023/08/07 08:55:11;;;;;;;0.00;0.00;;;16.50;99.90;;;;;;5093352;28;20228;-58
2023/08/07 08:57:38;;;;;;;0.00;0.00;;;16.90;99.90;;;;;;5093397;28;20625;-58
2023/08/07 09:00:20;;;;;;;0.00;0.00;;;17.10;99.90;;;;;;5093227;28;20686;-58
2023/08/07 09:02:49;;;;;;;0.00;0.00;;;17.10;99.90;;;;;;5093210;28;20179;-59
2023/08/07 09:05:19;;;;;;;0.00;0.00;;;17.10;99.90;;;;;;5093124;28;20271;-58
2023/08/07 09:07:46;;;;;;;0.00;0.00;;;17.10;99.90;;;;;;5093014;28;20699;-58
2023/08/07 09:10:13;;;;;;;0.00;0.00;;;17.20;99.90;;;;;;5093018;28;20640;-58
2023/08/07 09:12:41;;;;;;;0.00;0.00;;;17.20;99.90;;;;;;5092928;28;20198;-58
2023/08/07 09:15:08;;;;;;;0.00;0.00;;;16.90;99.90;;;;;;5092696;28;20295;-58
2023/08/07 09:17:39;;;;;;;0.00;0.00;;;16.90;99.90;;;;;;5092949;28;20168;-58
2023/08/07 09:20:10;;;;;;;0.00;0.00;;;16.90;99.90;;;;;;5092818;28;20282;-59
2023/08/07 09:22:36;;;;;;;0.00;0.00;;;16.90;99.90;;;;;;5092026;28;20704;-58
2023/08/07 09:25:01;;;;;;;0.00;0.00;;;16.90;99.90;;;;;;5092314;28;20270;-58
2023/08/07 09:27:27;;;;;;;0.00;0.00;;;17.00;99.90;;;;;;5092877;28;20253;-58
2023/08/07 09:29:55;;;;;;;0.00;0.00;;;17.00;99.90;;;;;;5092527;28;20357;-59
2023/08/07 09:32:23;;;;;;;0.00;0.00;;;17.20;99.90;;;;;;5092476;28;20947;-58
2023/08/07 09:34:49;;;;;;;0.00;0.00;;;17.50;99.90;;;;;;5092464;28;20758;-58
2023/08/07 09:37:15;;;;;;;0.00;0.00;;;17.50;99.90;;;;;;5092517;28;20537;-58
2023/08/07 09:39:41;;;;;;;0.00;0.00;;;17.50;99.90;;;;;;5092443;28;20184;-59
2023/08/07 09:42:16;;;;;;;0.00;0.00;;;17.60;99.90;;;;;;5092258;28;20176;-59
2023/08/07 09:44:44;;;;;;;0.00;0.00;;;17.60;99.90;;;;;;5092402;28;20178;-59
2023/08/07 09:47:15;;;;;;;0.00;0.00;;;17.50;99.80;;;;;;5092311;28;20263;-59
2023/08/07 09:49:41;;;;;;;0.00;0.00;;;17.20;99.80;;;;;;5092286;28;20176;-59
2023/08/07 09:52:08;;;;;;;0.15;0.15;;;17.20;99.90;;;;;;5092154;28;20164;-59
2023/08/07 09:54:34;;;;;;;0.00;0.00;;;17.30;99.90;;;;;;5092218;28;20219;-59
2023/08/07 09:57:01;;;;;;;0.00;0.00;;;17.90;99.20;;;;;;5091996;28;20182;-59
2023/08/07 09:59:27;;;;;;;0.00;0.00;;;18.30;98.50;;;;;;5092133;28;20176;-59
2023/08/07 10:01:57;;;;;;;0.08;0.08;;;18.40;97.60;;;;;;5092057;28;20172;-59
2023/08/07 10:04:23;;;;;;;0.00;0.00;;;18.70;98.90;;;;;;5091926;28;20229;-57
2023/08/07 10:06:49;;;;;;;0.00;0.00;;;18.80;97.00;;;;;;5092106;28;20524;-57
2023/08/07 10:09:15;;;;;;;0.00;0.00;;;18.60;97.20;;;;;;5092072;28;20169;-58
2023/08/07 10:11:42;;;;;;;0.00;0.00;;;18.40;97.00;;;;;;5092134;28;20184;-58
2023/08/07 10:14:13;;;;;;;0.00;0.00;;;18.20;97.20;;;;;;5091906;28;20179;-58
2023/08/07 10:16:41;;;;;;;0.00;0.00;;;18.10;97.10;;;;;;5092041;28;20180;-58
2023/08/07 10:19:07;;;;;;;0.00;0.00;;;18.00;97.30;;;;;;5091949;28;20237;-59
2023/08/07 10:21:37;;;;;;;0.00;0.00;;;18.00;97.60;;;;;;5091962;28;20687;-59
2023/08/07 10:24:08;;;;;;;0.00;0.00;;;18.10;98.20;;;;;;5091780;28;20176;-59
2023/08/07 10:26:35;;;;;;;0.00;0.00;;;18.30;98.10;;;;;;5092107;28;20195;-59
2023/08/07 10:29:04;;;;;;;0.00;0.00;;;18.40;96.80;;;;;;5091584;28;20310;-59
2023/08/07 10:31:31;;;;;;;0.00;0.00;;;18.30;97.00;;;;;;5091862;28;20181;-59
2023/08/07 10:33:58;;;;;;;0.00;0.00;;;18.30;97.40;;;;;;5091387;28;20222;-59
2023/08/07 10:36:23;;;;;;;0.00;0.00;;;18.20;97.50;;;;;;5091651;28;20232;-59
2023/08/07 10:38:51;;;;;;;0.00;0.00;;;18.30;97.40;;;;;;5091743;28;20520;-59
2023/08/07 10:41:18;;;;;;;0.08;0.08;;;18.40;96.90;;;;;;5091720;28;20168;-59
2023/08/07 10:43:45;;;;;;;0.00;0.00;;;18.40;96.90;;;;;;5091703;28;20172;-59
2023/08/07 10:46:19;;;;;;;0.00;0.00;;;18.40;96.80;;;;;;5091753;28;20199;-59
2023/08/07 10:48:49;;;;;;;0.05;0.05;;;18.40;96.90;;;;;;5091711;28;20176;-59
2023/08/07 10:51:17;;;;;;;0.00;0.00;;;18.40;97.10;;;;;;5091652;28;20168;-58
2023/08/07 10:53:45;;;;;;;0.00;0.00;;;18.40;97.90;;;;;;5091364;28;20635;-59
2023/08/07 10:56:16;;;;;;;0.00;0.00;;;18.20;98.40;;;;;;5091515;28;20218;-58
2023/08/07 10:58:42;;;;;;;0.00;0.00;;;17.90;99.00;;;;;;5091531;28;20175;-58
2023/08/07 11:01:26;;;;;;;0.00;0.00;;;17.70;99.10;;;;;;5091561;28;20183;-58
2023/08/07 11:03:56;;;;;;;0.00;0.00;;;17.40;98.70;;;;;;5091564;28;20183;-59
2023/08/07 11:06:26;;;;;;;0.00;0.00;;;17.40;99.90;;;;;;5091365;28;20251;-58
2023/08/07 11:08:52;;;;;;;0.00;0.00;;;17.30;99.90;;;;;;5091628;28;20188;-59
2023/08/07 11:11:18;;;;;;;1.52;1.17;;;17.30;99.90;;;;;;5091461;28;20225;-58
2023/08/07 11:13:43;;;;;;;0.10;0.05;;;17.40;99.90;;;;;;5091371;28;20172;-58
2023/08/07 11:16:09;;;;;;;0.00;0.00;;;17.30;99.90;;;;;;5091394;28;20243;-59
2023/08/07 11:18:41;;;;;;;0.00;0.00;;;17.30;99.90;;;;;;5091445;28;20172;-59
2023/08/07 11:21:08;;;;;;;0.00;0.00;;;17.40;99.90;;;;;;5091384;28;20180;-59
2023/08/07 11:23:35;;;;;;;0.00;0.00;;;17.50;99.90;;;;;;5091306;28;20177;-59
2023/08/07 11:26:02;;;;;;;0.00;0.00;;;17.70;99.90;;;;;;5091309;28;20554;-59
2023/08/07 11:28:28;;;;;;;0.00;0.00;;;17.80;99.90;;;;;;5091192;28;20232;-59
2023/08/07 11:30:55;;;;;;;0.00;0.00;;;17.90;99.90;;;;;;5091325;28;20181;-59
2023/08/07 11:33:21;;;;;;;0.00;0.00;;;18.10;99.90;;;;;;5091081;28;20180;-59
2023/08/07 11:35:47;;;;;;;0.00;0.00;;;18.10;99.90;;;;;;5091192;28;20208;-59
2023/08/07 11:38:28;;;;;;;0.00;0.00;;;18.20;99.90;;;;;;5091079;28;20176;-59
2023/08/07 11:40:53;;;;;;;0.00;0.00;;;18.30;99.90;;;;;;5091290;28;20255;-59
2023/08/07 11:43:19;;;;;;;0.00;0.00;;;18.60;99.90;;;;;;5090939;28;20596;-59
2023/08/07 11:45:44;;;;;;;0.00;0.00;;;18.80;99.90;;;;;;5091063;28;20667;-59
2023/08/07 11:48:10;;;;;;;0.00;0.00;;;18.70;99.90;;;;;;5094358;28;20550;-59
2023/08/07 11:50:37;;;;;;;0.00;0.00;;;18.70;99.90;;;;;;5094729;28;20238;-59
2023/08/07 11:53:02;;;;;;;0.00;0.00;;;18.90;99.90;;;;;;5094513;28;20172;-59
2023/08/07 11:55:29;;;;;;;0.00;0.00;;;18.90;99.90;;;;;;5094729;28;20257;-59
2023/08/07 11:57:55;;;;;;;0.00;0.00;;;18.90;99.70;;;;;;5094561;28;20187;-59
2023/08/07 12:00:25;;;;;;;0.00;0.00;;;18.80;99.90;;;;;;5094341;28;20180;-59
2023/08/07 12:02:50;;;;;;;0.00;0.00;;;18.70;99.90;;;;;;5094534;28;20179;-59
2023/08/07 12:05:16;;;;;;;0.00;0.00;;;18.50;99.80;;;;;;5094308;28;20172;-59
2023/08/07 12:07:41;;;;;;;0.00;0.00;;;18.30;99.90;;;;;;5094363;28;20212;-59
2023/08/07 12:10:09;;;;;;;0.00;0.00;;;18.10;99.90;;;;;;5094310;28;20267;-59
2023/08/07 12:12:37;;;;;;;0.10;0.10;;;18.00;99.90;;;;;;5094294;28;20173;-58
2023/08/07 12:15:06;;;;;;;0.00;0.00;;;17.90;99.90;;;;;;5093922;28;20716;-59
2023/08/07 12:17:32;;;;;;;0.00;0.00;;;17.80;99.90;;;;;;5094147;28;20177;-59
2023/08/07 12:19:58;;;;;;;0.00;0.00;;;17.80;99.90;;;;;;5094224;28;20180;-59
2023/08/07 12:22:26;;;;;;;0.00;0.00;;;17.80;99.90;;;;;;5094056;28;20199;-59
2023/08/07 12:24:52;;;;;;;0.00;0.00;;;17.90;99.90;;;;;;5094158;28;20172;-58
2023/08/07 12:27:18;;;;;;;0.00;0.00;;;18.00;99.90;;;;;;5093954;28;20177;-59
2023/08/07 12:29:43;;;;;;;0.00;0.00;;;18.10;99.90;;;;;;5093866;28;20277;-59
2023/08/07 12:32:09;;;;;;;0.00;0.00;;;18.10;99.90;;;;;;5093943;28;20172;-59
2023/08/07 12:34:36;;;;;;;0.00;0.00;;;18.30;99.90;;;;;;5093955;28;20247;-59
2023/08/07 12:37:01;;;;;;;0.00;0.00;;;18.40;99.90;;;;;;5093760;28;20169;-59
2023/08/07 12:39:26;;;;;;;0.00;0.00;;;18.70;99.90;;;;;;5093800;28;20552;-59
2023/08/07 12:41:52;;;;;;;0.00;0.00;;;19.00;99.90;;;;;;5093846;28;20202;-59
2023/08/07 12:44:18;;;;;;;0.00;0.00;;;19.30;99.90;;;;;;5093682;28;20176;-59